ADDS METAR Data INFO
IDs: Format: Raw Decoded Include TAF

Data at: 0437 UTC 24 Apr 2018

METAR for:KJAX (Jacksonville Intl, FL, US)
Text:KJAX 240356Z 18006KT 10SM FEW035 BKN210 19/19 A2991 RMK AO2 SLP129 T01940189 $
Temperature: 19.4°C ( 67°F)
Dewpoint: 18.9°C ( 66°F) [RH = 97%]
Pressure (altimeter):29.91 inches Hg (1013.0 mb) [Sea level pressure: 1012.9 mb]
Winds:from the S (180 degrees) at 7 MPH (6 knots; 3.1 m/s)
Visibility:10 or more sm (16+ km)
Ceiling:21000 feet AGL
Clouds: few clouds at 3500 feet AGL, broken clouds at 21000 feet AGL
QC Flag:SOME DATA ABOVE MAY BE INACCURATE!!!"$" is an indication the sensor requires maintenance.

METAR for:KCRG (Jacksonville/Executi, FL, US)
Text:KCRG 240353Z AUTO 19005KT 10SM CLR 22/22 A2993 RMK AO2 SLP133 T02170217
Temperature: 21.7°C ( 71°F)
Dewpoint: 21.7°C ( 71°F) [RH = 100%]
Pressure (altimeter):29.93 inches Hg (1013.6 mb) [Sea level pressure: 1013.3 mb]
Winds:from the S (190 degrees) at 6 MPH (5 knots; 2.6 m/s)
Visibility:10 or more sm (16+ km)
Ceiling:at least 12,000 feet AGL
Clouds:sky clear below 12,000 feet AGL
QC Flag:automated observation with no human augmentation

METAR for:KNIP (Jacksonville (NAS), FL, US)
Text:KNIP 240353Z 19009KT 10SM SCT030 BKN220 23/21 A2993 RMK AO2 SLP132 T02280206
Temperature: 22.8°C ( 73°F)
Dewpoint: 20.6°C ( 69°F) [RH = 87%]
Pressure (altimeter):29.93 inches Hg (1013.6 mb) [Sea level pressure: 1013.2 mb]
Winds:from the S (190 degrees) at 10 MPH (9 knots; 4.6 m/s)
Visibility:10 or more sm (16+ km)
Ceiling:22000 feet AGL
Clouds: scattered clouds at 3000 feet AGL, broken clouds at 22000 feet AGL

METAR for:KNRB (Mayport (NS), FL, US)
Text:KNRB 240352Z 18008KT 10SM BKN230 21/21 A2993 RMK AO2 SLP133 T02110206 PNO $
Temperature: 21.1°C ( 70°F)
Dewpoint: 20.6°C ( 69°F) [RH = 97%]
Pressure (altimeter):29.93 inches Hg (1013.6 mb) [Sea level pressure: 1013.3 mb]
Winds:from the S (180 degrees) at 9 MPH (8 knots; 4.1 m/s)
Visibility:10 or more sm (16+ km)
Ceiling:23000 feet AGL
Clouds: broken clouds at 23000 feet AGL
QC Flag:SOME DATA ABOVE MAY BE INACCURATE!!!"$" is an indication the sensor requires maintenance.

METAR for:KFHB (Fernandina Beach Mun, FL, US)
Text:KFHB 240415Z AUTO 20007KT 10SM CLR 21/20 A2990 RMK AO2 T02130200
Temperature: 21.3°C ( 70°F)
Dewpoint: 20.0°C ( 68°F) [RH = 92%]
Pressure (altimeter):29.90 inches Hg (1012.6 mb)
Winds:from the SSW (200 degrees) at 8 MPH (7 knots; 3.6 m/s)
Visibility:10 or more sm (16+ km)
Ceiling:at least 12,000 feet AGL
Clouds:sky clear below 12,000 feet AGL
QC Flag:automated observation with no human augmentation

METAR for:KVQQ (Jacksonville/Cecil A, FL, US)
Text:KVQQ 240435Z AUTO 16003KT 10SM CLR 20/20 A2993 RMK AO2
Temperature: 20.0°C ( 68°F)
Dewpoint: 20.0°C ( 68°F) [RH = 100%]
Pressure (altimeter):29.93 inches Hg (1013.6 mb)
Winds:from the SSE (160 degrees) at 3 MPH (3 knots; 1.5 m/s)
Visibility:10 or more sm (16+ km)
Ceiling:at least 12,000 feet AGL
Clouds:sky clear below 12,000 feet AGL
QC Flag:automated observation with no human augmentation